sensor_id;sensor_type;location;lat;lon;timestamp;P1;durP1;ratioP1;P2;durP2;ratioP2
15258;SDS011;34462;51.368;12.364;2023-05-18T00:00:28;5.50;;;3.17;;
15258;SDS011;34462;51.368;12.364;2023-05-18T00:02:57;5.43;;;2.90;;
15258;SDS011;34462;51.368;12.364;2023-05-18T00:05:27;5.63;;;2.90;;
15258;SDS011;34462;51.368;12.364;2023-05-18T00:07:59;4.93;;;2.80;;
15258;SDS011;34462;51.368;12.364;2023-05-18T00:10:28;6.73;;;3.07;;
15258;SDS011;34462;51.368;12.364;2023-05-18T00:12:56;5.63;;;3.03;;
15258;SDS011;34462;51.368;12.364;2023-05-18T00:15:24;4.77;;;2.90;;
15258;SDS011;34462;51.368;12.364;2023-05-18T00:17:53;7.23;;;3.20;;
15258;SDS011;34462;51.368;12.364;2023-05-18T00:20:23;6.43;;;3.20;;
15258;SDS011;34462;51.368;12.364;2023-05-18T00:22:52;5.50;;;2.80;;
15258;SDS011;34462;51.368;12.364;2023-05-18T00:25:21;7.33;;;2.80;;
15258;SDS011;34462;51.368;12.364;2023-05-18T00:27:49;5.30;;;2.87;;
15258;SDS011;34462;51.368;12.364;2023-05-18T00:30:18;4.63;;;2.80;;
15258;SDS011;34462;51.368;12.364;2023-05-18T00:32:46;6.30;;;2.87;;
15258;SDS011;34462;51.368;12.364;2023-05-18T00:35:14;8.07;;;2.90;;
15258;SDS011;34462;51.368;12.364;2023-05-18T00:37:44;6.00;;;2.70;;
15258;SDS011;34462;51.368;12.364;2023-05-18T00:40:12;4.80;;;2.70;;
15258;SDS011;34462;51.368;12.364;2023-05-18T00:42:40;6.90;;;2.90;;
15258;SDS011;34462;51.368;12.364;2023-05-18T00:45:09;6.70;;;2.93;;
15258;SDS011;34462;51.368;12.364;2023-05-18T00:47:37;4.37;;;2.87;;
15258;SDS011;34462;51.368;12.364;2023-05-18T00:50:06;5.17;;;2.97;;
15258;SDS011;34462;51.368;12.364;2023-05-18T00:52:35;6.83;;;2.80;;
15258;SDS011;34462;51.368;12.364;2023-05-18T00:55:06;4.70;;;2.93;;
15258;SDS011;34462;51.368;12.364;2023-05-18T00:57:38;4.33;;;2.77;;
15258;SDS011;34462;51.368;12.364;2023-05-18T01:00:10;6.60;;;3.47;;
15258;SDS011;34462;51.368;12.364;2023-05-18T01:02:40;4.80;;;2.80;;
15258;SDS011;34462;51.368;12.364;2023-05-18T01:05:11;6.37;;;2.87;;
15258;SDS011;34462;51.368;12.364;2023-05-18T01:07:39;6.83;;;3.00;;
15258;SDS011;34462;51.368;12.364;2023-05-18T01:10:10;6.60;;;3.03;;
15258;SDS011;34462;51.368;12.364;2023-05-18T01:12:43;7.63;;;3.30;;
15258;SDS011;34462;51.368;12.364;2023-05-18T01:15:17;8.60;;;3.13;;
15258;SDS011;34462;51.368;12.364;2023-05-18T01:17:52;9.77;;;3.27;;
15258;SDS011;34462;51.368;12.364;2023-05-18T01:20:36;5.90;;;2.90;;
15258;SDS011;34462;51.368;12.364;2023-05-18T01:26:33;5.47;;;3.10;;
15258;SDS011;34462;51.368;12.364;2023-05-18T01:29:08;5.60;;;3.33;;
15258;SDS011;34462;51.368;12.364;2023-05-18T01:31:39;7.70;;;3.13;;
15258;SDS011;34462;51.368;12.364;2023-05-18T01:34:07;4.93;;;3.10;;
15258;SDS011;34462;51.368;12.364;2023-05-18T01:36:36;7.40;;;3.50;;
15258;SDS011;34462;51.368;12.364;2023-05-18T01:39:04;5.37;;;3.33;;
15258;SDS011;34462;51.368;12.364;2023-05-18T01:41:34;6.77;;;3.57;;
15258;SDS011;34462;51.368;12.364;2023-05-18T01:44:09;5.93;;;3.03;;
15258;SDS011;34462;51.368;12.364;2023-05-18T01:46:45;5.27;;;3.23;;
15258;SDS011;34462;51.368;12.364;2023-05-18T01:49:28;6.50;;;3.07;;
15258;SDS011;34462;51.368;12.364;2023-05-18T01:52:02;4.60;;;2.93;;
15258;SDS011;34462;51.368;12.364;2023-05-18T01:54:36;4.97;;;2.90;;
15258;SDS011;34462;51.368;12.364;2023-05-18T01:57:12;7.20;;;3.53;;
15258;SDS011;34462;51.368;12.364;2023-05-18T01:59:42;7.20;;;3.33;;
15258;SDS011;34462;51.368;12.364;2023-05-18T02:02:11;8.83;;;3.40;;
15258;SDS011;34462;51.368;12.364;2023-05-18T02:04:40;7.67;;;3.27;;
15258;SDS011;34462;51.368;12.364;2023-05-18T02:07:08;5.73;;;3.30;;
15258;SDS011;34462;51.368;12.364;2023-05-18T02:09:36;5.00;;;3.00;;
15258;SDS011;34462;51.368;12.364;2023-05-18T02:12:05;6.47;;;3.30;;
15258;SDS011;34462;51.368;12.364;2023-05-18T02:14:35;5.70;;;3.10;;
15258;SDS011;34462;51.368;12.364;2023-05-18T02:17:04;5.30;;;3.13;;
15258;SDS011;34462;51.368;12.364;2023-05-18T02:19:32;9.60;;;3.20;;
15258;SDS011;34462;51.368;12.364;2023-05-18T02:22:03;7.87;;;3.20;;
15258;SDS011;34462;51.368;12.364;2023-05-18T02:24:33;6.17;;;3.60;;
15258;SDS011;34462;51.368;12.364;2023-05-18T02:27:01;5.73;;;2.97;;
15258;SDS011;34462;51.368;12.364;2023-05-18T02:29:31;5.90;;;3.83;;
15258;SDS011;34462;51.368;12.364;2023-05-18T02:32:01;6.00;;;3.67;;
15258;SDS011;34462;51.368;12.364;2023-05-18T02:34:29;6.10;;;3.50;;
15258;SDS011;34462;51.368;12.364;2023-05-18T02:36:59;8.40;;;3.70;;
15258;SDS011;34462;51.368;12.364;2023-05-18T02:39:29;6.50;;;3.57;;
15258;SDS011;34462;51.368;12.364;2023-05-18T02:41:59;7.03;;;3.50;;
15258;SDS011;34462;51.368;12.364;2023-05-18T02:44:27;6.37;;;3.17;;
15258;SDS011;34462;51.368;12.364;2023-05-18T02:46:55;5.07;;;3.67;;
15258;SDS011;34462;51.368;12.364;2023-05-18T02:49:25;6.73;;;3.57;;
15258;SDS011;34462;51.368;12.364;2023-05-18T02:51:53;7.00;;;3.53;;
15258;SDS011;34462;51.368;12.364;2023-05-18T02:54:21;8.33;;;3.80;;
15258;SDS011;34462;51.368;12.364;2023-05-18T02:56:49;4.87;;;3.23;;
15258;SDS011;34462;51.368;12.364;2023-05-18T02:59:22;6.90;;;3.77;;
15258;SDS011;34462;51.368;12.364;2023-05-18T03:01:50;6.93;;;3.77;;
15258;SDS011;34462;51.368;12.364;2023-05-18T03:04:18;5.77;;;3.43;;
15258;SDS011;34462;51.368;12.364;2023-05-18T03:06:52;6.83;;;4.17;;
15258;SDS011;34462;51.368;12.364;2023-05-18T03:09:22;9.27;;;3.80;;
15258;SDS011;34462;51.368;12.364;2023-05-18T03:11:50;5.73;;;3.80;;
15258;SDS011;34462;51.368;12.364;2023-05-18T03:14:19;8.70;;;4.00;;
15258;SDS011;34462;51.368;12.364;2023-05-18T03:16:47;6.40;;;3.67;;
15258;SDS011;34462;51.368;12.364;2023-05-18T03:19:18;5.30;;;3.53;;
15258;SDS011;34462;51.368;12.364;2023-05-18T03:21:47;4.97;;;3.70;;
15258;SDS011;34462;51.368;12.364;2023-05-18T03:24:16;7.47;;;4.17;;
15258;SDS011;34462;51.368;12.364;2023-05-18T03:26:45;6.73;;;3.70;;
15258;SDS011;34462;51.368;12.364;2023-05-18T03:29:13;6.90;;;3.50;;
15258;SDS011;34462;51.368;12.364;2023-05-18T03:31:41;5.90;;;3.77;;
15258;SDS011;34462;51.368;12.364;2023-05-18T03:34:10;6.33;;;3.77;;
15258;SDS011;34462;51.368;12.364;2023-05-18T03:36:38;4.97;;;3.30;;
15258;SDS011;34462;51.368;12.364;2023-05-18T03:39:07;7.27;;;3.73;;
15258;SDS011;34462;51.368;12.364;2023-05-18T03:41:37;7.27;;;3.50;;
15258;SDS011;34462;51.368;12.364;2023-05-18T03:44:05;6.67;;;3.30;;
15258;SDS011;34462;51.368;12.364;2023-05-18T03:46:33;8.40;;;3.67;;
15258;SDS011;34462;51.368;12.364;2023-05-18T03:49:02;4.70;;;3.90;;
15258;SDS011;34462;51.368;12.364;2023-05-18T03:51:32;5.50;;;3.63;;
15258;SDS011;34462;51.368;12.364;2023-05-18T03:54:01;7.40;;;3.97;;
15258;SDS011;34462;51.368;12.364;2023-05-18T03:56:29;7.43;;;3.53;;
15258;SDS011;34462;51.368;12.364;2023-05-18T03:58:58;4.67;;;3.27;;
15258;SDS011;34462;51.368;12.364;2023-05-18T04:01:27;6.97;;;4.00;;
15258;SDS011;34462;51.368;12.364;2023-05-18T04:03:58;5.23;;;3.33;;
15258;SDS011;34462;51.368;12.364;2023-05-18T04:06:26;6.13;;;3.60;;
15258;SDS011;34462;51.368;12.364;2023-05-18T04:08:55;8.00;;;3.30;;
15258;SDS011;34462;51.368;12.364;2023-05-18T04:11:27;7.13;;;3.63;;
15258;SDS011;34462;51.368;12.364;2023-05-18T04:13:56;5.30;;;2.93;;
15258;SDS011;34462;51.368;12.364;2023-05-18T04:16:27;7.10;;;3.40;;
15258;SDS011;34462;51.368;12.364;2023-05-18T04:18:56;5.17;;;3.50;;
15258;SDS011;34462;51.368;12.364;2023-05-18T04:21:25;6.93;;;3.60;;
15258;SDS011;34462;51.368;12.364;2023-05-18T04:24:00;5.73;;;3.67;;
15258;SDS011;34462;51.368;12.364;2023-05-18T04:26:30;8.20;;;3.83;;
15258;SDS011;34462;51.368;12.364;2023-05-18T04:28:59;6.40;;;3.27;;
15258;SDS011;34462;51.368;12.364;2023-05-18T04:31:29;6.53;;;3.50;;
15258;SDS011;34462;51.368;12.364;2023-05-18T04:33:57;6.47;;;3.50;;
15258;SDS011;34462;51.368;12.364;2023-05-18T04:36:25;6.33;;;3.30;;
15258;SDS011;34462;51.368;12.364;2023-05-18T04:38:56;5.27;;;3.53;;
15258;SDS011;34462;51.368;12.364;2023-05-18T04:41:24;6.67;;;3.33;;
15258;SDS011;34462;51.368;12.364;2023-05-18T04:43:53;7.73;;;4.37;;
15258;SDS011;34462;51.368;12.364;2023-05-18T04:46:21;4.33;;;3.27;;
15258;SDS011;34462;51.368;12.364;2023-05-18T04:48:51;5.77;;;3.33;;
15258;SDS011;34462;51.368;12.364;2023-05-18T04:51:23;5.73;;;3.40;;
15258;SDS011;34462;51.368;12.364;2023-05-18T04:53:51;5.63;;;3.73;;
15258;SDS011;34462;51.368;12.364;2023-05-18T04:56:20;5.07;;;2.63;;
15258;SDS011;34462;51.368;12.364;2023-05-18T04:58:49;5.03;;;2.83;;
15258;SDS011;34462;51.368;12.364;2023-05-18T05:01:17;4.17;;;2.47;;
15258;SDS011;34462;51.368;12.364;2023-05-18T05:03:45;3.03;;;2.23;;
15258;SDS011;34462;51.368;12.364;2023-05-18T05:06:15;4.23;;;2.77;;
15258;SDS011;34462;51.368;12.364;2023-05-18T05:08:43;5.60;;;2.70;;
15258;SDS011;34462;51.368;12.364;2023-05-18T05:11:11;4.23;;;2.43;;
15258;SDS011;34462;51.368;12.364;2023-05-18T05:13:39;6.83;;;2.67;;
15258;SDS011;34462;51.368;12.364;2023-05-18T05:16:07;6.30;;;2.40;;
15258;SDS011;34462;51.368;12.364;2023-05-18T05:18:35;5.50;;;2.40;;
15258;SDS011;34462;51.368;12.364;2023-05-18T05:21:04;5.43;;;2.53;;
15258;SDS011;34462;51.368;12.364;2023-05-18T05:23:34;5.67;;;2.30;;
15258;SDS011;34462;51.368;12.364;2023-05-18T05:26:02;4.33;;;2.27;;
15258;SDS011;34462;51.368;12.364;2023-05-18T05:28:31;3.70;;;2.00;;
15258;SDS011;34462;51.368;12.364;2023-05-18T05:30:59;6.60;;;2.27;;
15258;SDS011;34462;51.368;12.364;2023-05-18T05:33:27;4.33;;;2.40;;
15258;SDS011;34462;51.368;12.364;2023-05-18T05:35:55;3.97;;;2.43;;
15258;SDS011;34462;51.368;12.364;2023-05-18T05:38:24;5.00;;;2.23;;
15258;SDS011;34462;51.368;12.364;2023-05-18T05:40:53;3.97;;;2.40;;
15258;SDS011;34462;51.368;12.364;2023-05-18T05:43:21;3.40;;;2.33;;
15258;SDS011;34462;51.368;12.364;2023-05-18T05:45:50;5.63;;;2.33;;
15258;SDS011;34462;51.368;12.364;2023-05-18T05:48:18;6.50;;;2.80;;
15258;SDS011;34462;51.368;12.364;2023-05-18T05:50:46;6.20;;;2.50;;
15258;SDS011;34462;51.368;12.364;2023-05-18T05:53:14;6.73;;;2.23;;
15258;SDS011;34462;51.368;12.364;2023-05-18T05:55:45;5.83;;;2.10;;
15258;SDS011;34462;51.368;12.364;2023-05-18T05:58:14;5.23;;;2.13;;
15258;SDS011;34462;51.368;12.364;2023-05-18T06:00:42;3.90;;;2.00;;
15258;SDS011;34462;51.368;12.364;2023-05-18T06:03:12;4.03;;;2.20;;
15258;SDS011;34462;51.368;12.364;2023-05-18T06:05:40;5.67;;;2.53;;
15258;SDS011;34462;51.368;12.364;2023-05-18T06:08:08;6.37;;;2.10;;
15258;SDS011;34462;51.368;12.364;2023-05-18T06:10:36;3.80;;;2.10;;
15258;SDS011;34462;51.368;12.364;2023-05-18T06:13:06;6.43;;;2.70;;
15258;SDS011;34462;51.368;12.364;2023-05-18T06:15:36;6.40;;;2.37;;
15258;SDS011;34462;51.368;12.364;2023-05-18T06:18:04;6.30;;;2.37;;
15258;SDS011;34462;51.368;12.364;2023-05-18T06:20:32;6.10;;;2.40;;
15258;SDS011;34462;51.368;12.364;2023-05-18T06:23:00;5.73;;;2.30;;
15258;SDS011;34462;51.368;12.364;2023-05-18T06:25:28;5.53;;;2.60;;
15258;SDS011;34462;51.368;12.364;2023-05-18T06:27:57;6.53;;;2.10;;
15258;SDS011;34462;51.368;12.364;2023-05-18T06:30:25;5.20;;;2.07;;
15258;SDS011;34462;51.368;12.364;2023-05-18T06:32:55;4.90;;;2.10;;
15258;SDS011;34462;51.368;12.364;2023-05-18T06:35:23;4.47;;;2.00;;
15258;SDS011;34462;51.368;12.364;2023-05-18T06:37:51;7.27;;;1.90;;
15258;SDS011;34462;51.368;12.364;2023-05-18T06:40:19;5.17;;;2.10;;
15258;SDS011;34462;51.368;12.364;2023-05-18T06:42:47;5.73;;;2.10;;
15258;SDS011;34462;51.368;12.364;2023-05-18T06:45:16;5.10;;;2.30;;
15258;SDS011;34462;51.368;12.364;2023-05-18T06:47:44;4.20;;;2.10;;
15258;SDS011;34462;51.368;12.364;2023-05-18T06:50:15;7.70;;;2.30;;
15258;SDS011;34462;51.368;12.364;2023-05-18T06:52:43;5.03;;;2.20;;
15258;SDS011;34462;51.368;12.364;2023-05-18T06:55:11;6.23;;;2.23;;
15258;SDS011;34462;51.368;12.364;2023-05-18T06:57:40;5.37;;;1.73;;
15258;SDS011;34462;51.368;12.364;2023-05-18T07:00:08;8.07;;;2.57;;
15258;SDS011;34462;51.368;12.364;2023-05-18T07:02:38;6.13;;;1.90;;
15258;SDS011;34462;51.368;12.364;2023-05-18T07:05:08;6.27;;;1.90;;
15258;SDS011;34462;51.368;12.364;2023-05-18T07:07:37;4.90;;;2.20;;
15258;SDS011;34462;51.368;12.364;2023-05-18T07:10:06;6.87;;;2.00;;
15258;SDS011;34462;51.368;12.364;2023-05-18T07:12:35;7.10;;;2.30;;
15258;SDS011;34462;51.368;12.364;2023-05-18T07:15:04;3.90;;;2.27;;
15258;SDS011;34462;51.368;12.364;2023-05-18T07:17:33;5.77;;;2.20;;
15258;SDS011;34462;51.368;12.364;2023-05-18T07:20:01;5.40;;;2.00;;
15258;SDS011;34462;51.368;12.364;2023-05-18T07:22:31;5.03;;;2.00;;
15258;SDS011;34462;51.368;12.364;2023-05-18T07:25:00;5.47;;;2.10;;
15258;SDS011;34462;51.368;12.364;2023-05-18T07:27:29;4.97;;;2.17;;
15258;SDS011;34462;51.368;12.364;2023-05-18T07:29:58;4.20;;;2.20;;
15258;SDS011;34462;51.368;12.364;2023-05-18T07:32:26;8.17;;;2.23;;
15258;SDS011;34462;51.368;12.364;2023-05-18T07:34:54;5.13;;;2.10;;
15258;SDS011;34462;51.368;12.364;2023-05-18T07:37:22;5.70;;;2.47;;
15258;SDS011;34462;51.368;12.364;2023-05-18T07:39:51;4.80;;;2.20;;
15258;SDS011;34462;51.368;12.364;2023-05-18T07:42:20;3.47;;;1.83;;
15258;SDS011;34462;51.368;12.364;2023-05-18T07:44:48;5.00;;;2.30;;
15258;SDS011;34462;51.368;12.364;2023-05-18T07:47:17;5.17;;;2.10;;
15258;SDS011;34462;51.368;12.364;2023-05-18T07:49:46;4.07;;;2.00;;
15258;SDS011;34462;51.368;12.364;2023-05-18T07:52:14;4.20;;;2.07;;
15258;SDS011;34462;51.368;12.364;2023-05-18T07:54:43;6.10;;;2.00;;
15258;SDS011;34462;51.368;12.364;2023-05-18T07:57:11;4.77;;;2.03;;
15258;SDS011;34462;51.368;12.364;2023-05-18T07:59:40;5.17;;;2.03;;
15258;SDS011;34462;51.368;12.364;2023-05-18T08:02:08;4.23;;;2.00;;
15258;SDS011;34462;51.368;12.364;2023-05-18T08:04:37;6.33;;;1.90;;
15258;SDS011;34462;51.368;12.364;2023-05-18T08:07:05;5.37;;;2.00;;
15258;SDS011;34462;51.368;12.364;2023-05-18T08:09:34;6.50;;;2.33;;
15258;SDS011;34462;51.368;12.364;2023-05-18T08:12:02;5.43;;;2.07;;
15258;SDS011;34462;51.368;12.364;2023-05-18T08:14:31;4.10;;;1.73;;
15258;SDS011;34462;51.368;12.364;2023-05-18T08:17:01;5.50;;;2.03;;
15258;SDS011;34462;51.368;12.364;2023-05-18T08:19:30;3.77;;;1.67;;
15258;SDS011;34462;51.368;12.364;2023-05-18T08:21:58;5.60;;;2.03;;
15258;SDS011;34462;51.368;12.364;2023-05-18T08:24:26;3.17;;;1.73;;
15258;SDS011;34462;51.368;12.364;2023-05-18T08:26:54;4.53;;;1.73;;
15258;SDS011;34462;51.368;12.364;2023-05-18T08:29:22;3.92;;;1.65;;
15258;SDS011;34462;51.368;12.364;2023-05-18T08:31:50;3.85;;;1.40;;
15258;SDS011;34462;51.368;12.364;2023-05-18T08:34:20;3.83;;;1.52;;
15258;SDS011;34462;51.368;12.364;2023-05-18T08:36:48;4.47;;;1.85;;
15258;SDS011;34462;51.368;12.364;2023-05-18T08:39:17;4.22;;;1.58;;
15258;SDS011;34462;51.368;12.364;2023-05-18T08:41:49;4.53;;;1.90;;
15258;SDS011;34462;51.368;12.364;2023-05-18T08:44:24;3.63;;;1.40;;
15258;SDS011;34462;51.368;12.364;2023-05-18T08:47:06;5.80;;;1.80;;
15258;SDS011;34462;51.368;12.364;2023-05-18T08:49:38;4.90;;;1.88;;
15258;SDS011;34462;51.368;12.364;2023-05-18T08:52:08;5.20;;;1.60;;
15258;SDS011;34462;51.368;12.364;2023-05-18T08:54:44;4.75;;;1.73;;
15258;SDS011;34462;51.368;12.364;2023-05-18T08:57:14;5.47;;;1.90;;
15258;SDS011;34462;51.368;12.364;2023-05-18T08:59:48;5.03;;;2.38;;
15258;SDS011;34462;51.368;12.364;2023-05-18T09:02:20;5.45;;;1.77;;
15258;SDS011;34462;51.368;12.364;2023-05-18T09:04:51;4.50;;;2.15;;
15258;SDS011;34462;51.368;12.364;2023-05-18T09:07:23;4.78;;;1.80;;
15258;SDS011;34462;51.368;12.364;2023-05-18T09:09:53;4.57;;;2.00;;
15258;SDS011;34462;51.368;12.364;2023-05-18T09:12:24;4.82;;;1.80;;
15258;SDS011;34462;51.368;12.364;2023-05-18T09:14:54;4.72;;;2.10;;
15258;SDS011;34462;51.368;12.364;2023-05-18T09:17:26;4.88;;;1.75;;
15258;SDS011;34462;51.368;12.364;2023-05-18T09:19:55;4.80;;;1.70;;
15258;SDS011;34462;51.368;12.364;2023-05-18T09:22:23;6.78;;;1.80;;
15258;SDS011;34462;51.368;12.364;2023-05-18T09:24:52;4.25;;;1.55;;
15258;SDS011;34462;51.368;12.364;2023-05-18T09:27:20;2.65;;;1.70;;
15258;SDS011;34462;51.368;12.364;2023-05-18T09:29:50;4.25;;;1.88;;
15258;SDS011;34462;51.368;12.364;2023-05-18T09:32:19;3.92;;;1.80;;
15258;SDS011;34462;51.368;12.364;2023-05-18T09:34:48;3.45;;;2.08;;
15258;SDS011;34462;51.368;12.364;2023-05-18T09:37:18;5.18;;;2.08;;
15258;SDS011;34462;51.368;12.364;2023-05-18T09:39:57;6.72;;;2.72;;
15258;SDS011;34462;51.368;12.364;2023-05-18T09:42:26;4.60;;;1.85;;
15258;SDS011;34462;51.368;12.364;2023-05-18T09:45:02;4.18;;;1.48;;
15258;SDS011;34462;51.368;12.364;2023-05-18T09:47:31;4.45;;;1.77;;
15258;SDS011;34462;51.368;12.364;2023-05-18T09:50:00;5.43;;;1.80;;
15258;SDS011;34462;51.368;12.364;2023-05-18T09:52:30;3.10;;;1.48;;
15258;SDS011;34462;51.368;12.364;2023-05-18T09:55:07;2.80;;;1.92;;
15258;SDS011;34462;51.368;12.364;2023-05-18T09:57:40;3.45;;;1.90;;
15258;SDS011;34462;51.368;12.364;2023-05-18T10:00:09;7.22;;;1.90;;
15258;SDS011;34462;51.368;12.364;2023-05-18T10:02:41;4.15;;;2.03;;
15258;SDS011;34462;51.368;12.364;2023-05-18T10:05:18;5.43;;;1.75;;
15258;SDS011;34462;51.368;12.364;2023-05-18T10:07:50;8.45;;;2.17;;
15258;SDS011;34462;51.368;12.364;2023-05-18T10:10:20;4.90;;;1.65;;
15258;SDS011;34462;51.368;12.364;2023-05-18T10:12:51;3.92;;;1.73;;
15258;SDS011;34462;51.368;12.364;2023-05-18T10:15:21;4.72;;;1.55;;
15258;SDS011;34462;51.368;12.364;2023-05-18T10:17:51;4.35;;;1.92;;
15258;SDS011;34462;51.368;12.364;2023-05-18T10:20:23;4.43;;;2.20;;
15258;SDS011;34462;51.368;12.364;2023-05-18T10:22:54;3.28;;;1.50;;
15258;SDS011;34462;51.368;12.364;2023-05-18T10:25:26;4.20;;;1.70;;
15258;SDS011;34462;51.368;12.364;2023-05-18T10:27:58;5.15;;;1.80;;
15258;SDS011;34462;51.368;12.364;2023-05-18T10:30:33;3.90;;;1.60;;
15258;SDS011;34462;51.368;12.364;2023-05-18T10:33:02;3.97;;;1.58;;
15258;SDS011;34462;51.368;12.364;2023-05-18T10:35:46;3.17;;;1.40;;
15258;SDS011;34462;51.368;12.364;2023-05-18T10:38:18;4.53;;;1.73;;
15258;SDS011;34462;51.368;12.364;2023-05-18T10:40:49;5.47;;;1.73;;
15258;SDS011;34462;51.368;12.364;2023-05-18T10:43:21;4.53;;;1.75;;
15258;SDS011;34462;51.368;12.364;2023-05-18T10:45:53;3.17;;;1.48;;
15258;SDS011;34462;51.368;12.364;2023-05-18T10:48:24;4.20;;;1.67;;
15258;SDS011;34462;51.368;12.364;2023-05-18T10:50:56;6.32;;;1.95;;
15258;SDS011;34462;51.368;12.364;2023-05-18T10:53:26;2.38;;;1.50;;
15258;SDS011;34462;51.368;12.364;2023-05-18T10:55:55;5.10;;;1.67;;
15258;SDS011;34462;51.368;12.364;2023-05-18T10:58:24;3.50;;;1.58;;
15258;SDS011;34462;51.368;12.364;2023-05-18T11:00:56;4.22;;;1.67;;
15258;SDS011;34462;51.368;12.364;2023-05-18T11:03:28;3.67;;;1.60;;
15258;SDS011;34462;51.368;12.364;2023-05-18T11:06:02;4.85;;;1.73;;
15258;SDS011;34462;51.368;12.364;2023-05-18T11:08:35;3.75;;;1.20;;
15258;SDS011;34462;51.368;12.364;2023-05-18T11:11:10;6.03;;;1.98;;
15258;SDS011;34462;51.368;12.364;2023-05-18T11:13:42;5.05;;;1.77;;
15258;SDS011;34462;51.368;12.364;2023-05-18T11:16:13;5.22;;;1.40;;
15258;SDS011;34462;51.368;12.364;2023-05-18T11:18:44;3.45;;;1.63;;
15258;SDS011;34462;51.368;12.364;2023-05-18T11:21:18;4.05;;;1.45;;
15258;SDS011;34462;51.368;12.364;2023-05-18T11:24:21;2.50;;;1.30;;
15258;SDS011;34462;51.368;12.364;2023-05-18T11:27:01;3.25;;;1.50;;
15258;SDS011;34462;51.368;12.364;2023-05-18T11:29:41;4.28;;;1.50;;
15258;SDS011;34462;51.368;12.364;2023-05-18T11:32:21;5.03;;;1.70;;
15258;SDS011;34462;51.368;12.364;2023-05-18T11:34:56;4.47;;;1.45;;
15258;SDS011;34462;51.368;12.364;2023-05-18T11:43:19;2.83;;;1.42;;
15258;SDS011;34462;51.368;12.364;2023-05-18T11:45:52;5.07;;;1.35;;
15258;SDS011;34462;51.368;12.364;2023-05-18T11:48:25;3.67;;;1.30;;
15258;SDS011;34462;51.368;12.364;2023-05-18T11:50:55;2.70;;;1.10;;
15258;SDS011;34462;51.368;12.364;2023-05-18T11:53:24;4.80;;;1.50;;
15258;SDS011;34462;51.368;12.364;2023-05-18T11:55:54;3.95;;;1.45;;
15258;SDS011;34462;51.368;12.364;2023-05-18T11:58:23;3.65;;;1.55;;
15258;SDS011;34462;51.368;12.364;2023-05-18T12:00:53;3.78;;;1.50;;
15258;SDS011;34462;51.368;12.364;2023-05-18T12:03:23;2.70;;;1.30;;
15258;SDS011;34462;51.368;12.364;2023-05-18T12:05:53;3.10;;;1.45;;
15258;SDS011;34462;51.368;12.364;2023-05-18T12:08:26;4.38;;;1.60;;
15258;SDS011;34462;51.368;12.364;2023-05-18T12:10:57;4.25;;;1.40;;
15258;SDS011;34462;51.368;12.364;2023-05-18T12:13:27;1.95;;;1.08;;
15258;SDS011;34462;51.368;12.364;2023-05-18T12:15:56;3.90;;;1.35;;
15258;SDS011;34462;51.368;12.364;2023-05-18T12:18:27;6.07;;;1.52;;
15258;SDS011;34462;51.368;12.364;2023-05-18T12:20:55;5.15;;;1.48;;
15258;SDS011;34462;51.368;12.364;2023-05-18T12:23:33;3.40;;;1.77;;
15258;SDS011;34462;51.368;12.364;2023-05-18T12:26:05;2.63;;;1.23;;
15258;SDS011;34462;51.368;12.364;2023-05-18T12:28:33;2.95;;;1.30;;
15258;SDS011;34462;51.368;12.364;2023-05-18T12:31:02;3.20;;;1.48;;
15258;SDS011;34462;51.368;12.364;2023-05-18T12:33:33;4.30;;;1.35;;
15258;SDS011;34462;51.368;12.364;2023-05-18T12:36:01;3.60;;;1.30;;
15258;SDS011;34462;51.368;12.364;2023-05-18T12:38:35;3.20;;;1.33;;
15258;SDS011;34462;51.368;12.364;2023-05-18T12:41:05;4.55;;;1.35;;
15258;SDS011;34462;51.368;12.364;2023-05-18T12:43:33;3.05;;;1.48;;
15258;SDS011;34462;51.368;12.364;2023-05-18T12:46:02;3.20;;;1.08;;
15258;SDS011;34462;51.368;12.364;2023-05-18T12:48:34;3.75;;;1.20;;
15258;SDS011;34462;51.368;12.364;2023-05-18T12:51:04;4.43;;;1.33;;
15258;SDS011;34462;51.368;12.364;2023-05-18T12:53:40;3.67;;;1.40;;
15258;SDS011;34462;51.368;12.364;2023-05-18T12:56:10;2.72;;;1.23;;
15258;SDS011;34462;51.368;12.364;2023-05-18T12:58:39;4.55;;;1.30;;
15258;SDS011;34462;51.368;12.364;2023-05-18T13:01:09;3.03;;;1.38;;
15258;SDS011;34462;51.368;12.364;2023-05-18T13:03:38;4.40;;;1.63;;
15258;SDS011;34462;51.368;12.364;2023-05-18T13:06:07;3.25;;;1.17;;
15258;SDS011;34462;51.368;12.364;2023-05-18T13:08:36;4.78;;;1.65;;
15258;SDS011;34462;51.368;12.364;2023-05-18T13:11:04;2.65;;;1.10;;
15258;SDS011;34462;51.368;12.364;2023-05-18T13:16:29;4.03;;;1.58;;
15258;SDS011;34462;51.368;12.364;2023-05-18T13:19:00;2.80;;;1.25;;
15258;SDS011;34462;51.368;12.364;2023-05-18T13:21:32;5.25;;;1.60;;
15258;SDS011;34462;51.368;12.364;2023-05-18T13:24:01;3.05;;;1.40;;
15258;SDS011;34462;51.368;12.364;2023-05-18T13:26:30;5.35;;;1.58;;
15258;SDS011;34462;51.368;12.364;2023-05-18T13:29:00;5.82;;;1.48;;
15258;SDS011;34462;51.368;12.364;2023-05-18T13:31:28;3.08;;;1.17;;
15258;SDS011;34462;51.368;12.364;2023-05-18T13:33:56;4.13;;;1.40;;
15258;SDS011;34462;51.368;12.364;2023-05-18T13:36:24;4.07;;;1.30;;
15258;SDS011;34462;51.368;12.364;2023-05-18T13:38:54;3.33;;;1.40;;
15258;SDS011;34462;51.368;12.364;2023-05-18T13:41:22;3.45;;;1.60;;
15258;SDS011;34462;51.368;12.364;2023-05-18T13:43:50;5.55;;;1.40;;
15258;SDS011;34462;51.368;12.364;2023-05-18T13:46:20;4.45;;;1.50;;
15258;SDS011;34462;51.368;12.364;2023-05-18T13:48:48;4.78;;;1.63;;
15258;SDS011;34462;51.368;12.364;2023-05-18T13:51:16;3.67;;;1.40;;
15258;SDS011;34462;51.368;12.364;2023-05-18T13:53:45;6.63;;;2.63;;
15258;SDS011;34462;51.368;12.364;2023-05-18T13:56:13;3.13;;;1.50;;
15258;SDS011;34462;51.368;12.364;2023-05-18T13:58:41;4.88;;;1.30;;
15258;SDS011;34462;51.368;12.364;2023-05-18T14:01:09;3.90;;;1.40;;
15258;SDS011;34462;51.368;12.364;2023-05-18T14:03:40;5.22;;;1.67;;
15258;SDS011;34462;51.368;12.364;2023-05-18T14:06:08;4.32;;;1.40;;
15258;SDS011;34462;51.368;12.364;2023-05-18T14:08:36;4.82;;;1.65;;
15258;SDS011;34462;51.368;12.364;2023-05-18T14:11:05;5.63;;;1.80;;
15258;SDS011;34462;51.368;12.364;2023-05-18T14:13:33;4.25;;;1.60;;
15258;SDS011;34462;51.368;12.364;2023-05-18T14:16:01;2.88;;;1.30;;
15258;SDS011;34462;51.368;12.364;2023-05-18T14:18:29;3.85;;;1.40;;
15258;SDS011;34462;51.368;12.364;2023-05-18T14:20:58;3.67;;;1.60;;
15258;SDS011;34462;51.368;12.364;2023-05-18T14:23:28;3.60;;;1.58;;
15258;SDS011;34462;51.368;12.364;2023-05-18T14:25:56;4.40;;;2.50;;
15258;SDS011;34462;51.368;12.364;2023-05-18T14:28:24;3.75;;;1.75;;
15258;SDS011;34462;51.368;12.364;2023-05-18T14:30:53;2.80;;;1.60;;
15258;SDS011;34462;51.368;12.364;2023-05-18T14:33:21;5.85;;;2.70;;
15258;SDS011;34462;51.368;12.364;2023-05-18T14:35:49;5.28;;;1.85;;
15258;SDS011;34462;51.368;12.364;2023-05-18T14:38:18;3.17;;;1.83;;
15258;SDS011;34462;51.368;12.364;2023-05-18T14:40:46;3.55;;;1.58;;
15258;SDS011;34462;51.368;12.364;2023-05-18T14:43:15;4.00;;;1.90;;
15258;SDS011;34462;51.368;12.364;2023-05-18T14:45:43;5.40;;;1.98;;
15258;SDS011;34462;51.368;12.364;2023-05-18T14:48:21;3.13;;;1.48;;
15258;SDS011;34462;51.368;12.364;2023-05-18T14:50:50;3.85;;;1.85;;
15258;SDS011;34462;51.368;12.364;2023-05-18T14:53:19;3.80;;;1.60;;
15258;SDS011;34462;51.368;12.364;2023-05-18T14:55:47;6.15;;;2.17;;
15258;SDS011;34462;51.368;12.364;2023-05-18T14:58:15;4.00;;;1.55;;
15258;SDS011;34462;51.368;12.364;2023-05-18T15:00:44;3.10;;;1.50;;